• Join FlightAware (Why Join?)
  • Login
  • US Flag 
06:53PM EDT


 

Airport Tracker/Info


-or-


 

Live Flight TrackerFlight Track Log ✈ SWA2236 ✈ 16-Jul-2013 ✈ KJAX - KBWI

Flight Track Log - Related Links

Times and Time Zones

All times are in EDT time to prevent confusion due to time zone crossing. See the SWA2236 flight status page for this flight to view local times or setup timezone preferences in your user account.

Time Position Orientation Groundspeed Altitude Reporting Facility
EDT Latitude Longitude Course Direction KTS MPH feet Rate Location/Type
07:26PM 30.5611 -81.6428 27° Northeast 240 276 4,000  Level Jacksonville Center
07:28PM 30.6947 -81.6533 356° North 255 293 10,900 3,300 Climbing Jacksonville Center
07:29PM 30.7803 -81.6353 10° North 269 310 13,600 3,000 Climbing Jacksonville Center
07:30PM 30.8758 -81.6050 15° North 324 373 17,000 3,300 Climbing Jacksonville Center
07:31PM 30.9739 -81.5744 15° North 345 397 20,300 3,000 Climbing Jacksonville Center
07:32PM 31.0778 -81.5414 15° North 358 412 23,100 2,640 Climbing Jacksonville Center
07:33PM 31.1861 -81.5058 16° North 400 460 25,600 2,400 Climbing Jacksonville Center
07:34PM 31.2814 -81.4389 31° Northeast 397 457 27,900 2,160 Climbing Jacksonville Center
07:35PM 31.3764 -81.3522 38° Northeast 419 482 30,000 1,980 Climbing Jacksonville Center
07:36PM 31.4653 -81.2778 36° Northeast 433 498 31,900 2,220 Climbing Jacksonville Center
07:37PM 31.5769 -81.2028 30° Northeast 425 489 34,500 1,500 Climbing Jacksonville Center
07:38PM 31.6825 -81.1372 28° Northeast 416 479 35,000 240 Climbing Jacksonville Center
07:39PM 31.7797 -81.0792 27° Northeast 423 487 35,000  Level Jacksonville Center
07:40PM 31.8958 -81.0083 27° Northeast 423 487 35,000 540 Level Jacksonville Center
07:41PM 31.9950 -80.9525 26° Northeast 423 487 36,100 1,500 Climbing Jacksonville Center
07:42PM 32.1131 -80.8861 25° Northeast 423 487 38,100 1,620 Climbing Jacksonville Center
07:43PM 32.2100 -80.8106 33° Northeast 416 479 39,400 1,200 Climbing Jacksonville Center
07:44PM 32.3025 -80.7297 36° Northeast 410 472 40,500 780 Climbing Jacksonville Center
07:45PM 32.3972 -80.6511 35° Northeast 416 479 41,000 240 Climbing Jacksonville Center
07:46PM 32.4917 -80.5700 36° Northeast 416 479 41,000  Level Jacksonville Center
07:47PM 32.5864 -80.4886 36° Northeast 421 484 41,000  Level Jacksonville Center
07:48PM 32.6808 -80.4097 35° Northeast 414 476 41,000  Level Jacksonville Center
07:49PM 32.7753 -80.3281 36° Northeast 414 476 41,000  Level Jacksonville Center
07:50PM 32.8694 -80.2461 36° Northeast 414 476 41,000  Level Jacksonville Center
07:51PM 32.9597 -80.1692 36° Northeast 430 495 41,000  Level Jacksonville Center
07:52PM 33.0619 -80.0769 37° Northeast 430 495 41,000  Level Jacksonville Center
07:53PM 33.1583 -79.9969 35° Northeast 425 489 41,000  Level Jacksonville Center
07:54PM 33.2525 -79.9169 35° Northeast 420 483 41,000  Level Jacksonville Center
07:55PM 33.3467 -79.8367 35° Northeast 415 478 41,000  Level Jacksonville Center
07:56PM 33.4406 -79.7539 36° Northeast 421 484 41,000  Level Jacksonville Center
07:57PM 33.5344 -79.6733 36° Northeast 421 484 41,000  Level Jacksonville Center
07:58PM 33.6264 -79.5900 37° Northeast 421 484 41,000  Level Jacksonville Center
07:59PM 33.7142 -79.5169 35° Northeast 421 484 41,000  Level Jacksonville Center
08:00PM 33.8158 -79.4256 37° Northeast 421 484 41,000  Level Jacksonville Center
08:01PM 33.8933 -79.3575 36° Northeast 403 464 41,000  Level Jacksonville Center
08:02PM 33.9869 -79.2736 37° Northeast 403 464 41,000  Level Jacksonville Center
08:03PM 34.0786 -79.1969 35° Northeast 403 464 41,000  Level Jacksonville Center
08:05PM 34.2686 -79.0272 36° Northeast 407 468 41,000  Level Washington Center
08:06PM 34.3686 -78.9533 31° Northeast 412 474 41,000  Level Washington Center
08:07PM 34.4667 -78.8792 32° Northeast 417 480 41,000  Level Washington Center
08:08PM 34.5736 -78.7903 34° Northeast 433 498 41,000  Level Washington Center
08:09PM 34.6650 -78.7231 31° Northeast 433 498 41,000  Level Washington Center
08:10PM 34.7736 -78.6414 32° Northeast 439 505 41,000  Level Washington Center
08:11PM 34.8672 -78.5664 33° Northeast 422 486 41,000  Level Washington Center
08:12PM 34.9650 -78.4914 32° Northeast 408 470 41,000  Level Washington Center
08:13PM 35.0628 -78.4164 32° Northeast 408 470 41,000  Level Washington Center
08:14PM 35.1606 -78.3383 33° Northeast 413 475 41,000  Level Washington Center
08:15PM 35.2603 -78.2631 32° Northeast 423 487 41,000  Level Washington Center
08:16PM 35.3581 -78.1847 33° Northeast 418 481 41,000  Level Washington Center
08:17PM 35.4450 -78.1161 33° Northeast 418 481 41,000  Level Washington Center
08:18PM 35.5447 -78.0428 31° Northeast 418 481 41,000  Level Washington Center
08:19PM 35.6442 -77.9664 32° Northeast 418 481 41,000 -360 Level Washington Center
08:20PM 35.7494 -77.9183 20° North 413 475 40,400 -540 Descending Washington Center
08:21PM 35.8614 -77.9603 343° North 386 444 40,000 -240 Descending Washington Center
08:22PM 35.9708 -78.0250 334° Northwest 402 463 40,000 -300 Level Washington Center
08:23PM 36.0861 -78.0903 335° Northwest 435 501 39,500 -720 Descending Washington Center
08:24PM 36.1994 -78.1556 335° Northwest 435 501 38,600 -960 Descending Washington Center
08:25PM 36.3192 -78.2214 336° Northwest 445 512 37,600 -1,440 Descending Washington Center
08:26PM 36.4367 -78.2847 337° Northwest 457 526 35,800 -1,860 Descending Washington Center
08:27PM 36.5564 -78.3458 338° Northwest 457 526 33,900 -1,740 Descending Washington Center
08:28PM 36.6719 -78.4017 339° North 457 526 32,400 -1,560 Descending Washington Center
08:29PM 36.7833 -78.4550 339° North 442 509 30,900 -1,500 Descending Washington Center
08:30PM 36.9011 -78.4958 345° North 442 509 29,400 -1,260 Descending Washington Center
08:31PM 36.9664 -78.3864 53° Northeast 342 394 28,400 -720 Descending Washington Center
08:32PM 36.9861 -78.2492 80° East 319 367 28,000 -600 Descending Washington Center
08:33PM 36.9994 -78.1222 82° East 346 398 27,300 -900 Descending Washington Center
08:34PM 37.0125 -77.9928 83° East 352 405 26,300 -960 Descending Washington Center
08:35PM 37.0275 -77.8656 82° East 364 419 25,400 -660 Descending Washington Center
08:36PM 37.0428 -77.7178 83° East 382 440 25,000 -360 Descending Washington Center
08:37PM 37.0511 -77.5878 85° East 382 440 24,800 -600 Descending Washington Center
08:38PM 37.0617 -77.4606 84° East 382 440 23,800 -900 Descending Washington Center
08:39PM 37.0697 -77.3333 85° East 371 427 23,000 -420 Descending Washington Center
08:40PM 37.0778 -77.2033 86° East 366 421 23,000  Level Washington Center
08:41PM 37.0897 -77.0786 83° East 366 421 23,000  Level Washington Center
08:42PM 37.1742 -77.0125 32° Northeast 325 374 23,000  Level Washington Center
08:43PM 37.2783 -77.0144 359° North 318 366 23,000  Level Washington Center
08:44PM 37.3742 -77.0267 354° North 348 400 23,000  Level Washington Center
08:45PM 37.4889 -77.0367 356° North 379 436 23,000  Level Washington Center
08:46PM 37.6014 -77.0492 355° North 391 450 23,000  Level Washington Center
08:47PM 37.7158 -77.0619 355° North 398 458 23,000  Level Washington Center
08:48PM 37.8283 -77.0747 355° North 408 470 23,000 -60 Level Washington Center
08:49PM 37.9408 -77.0872 355° North 408 470 22,900 -600 Descending Washington Center
08:50PM 38.0575 -77.1003 355° North 408 470 21,900 -1,380 Descending Washington Center
08:51PM 38.1678 -77.1131 355° North 408 470 20,200 -2,040 Descending Washington Center
08:52PM 38.2739 -77.1258 355° North 396 456 17,900 -2,580 Descending Washington Center
08:53PM 38.3781 -77.1331 357° North 384 442 15,100 -1,860 Descending Washington Center
08:54PM 38.4542 -77.0553 39° Northeast 338 389 14,200 -1,620 Descending Washington Center
08:55PM 38.5239 -76.9689 44° Northeast 332 382 12,000 -1,740 Descending Washington Center
08:56PM 38.5936 -76.8853 43° Northeast 332 382 10,800 -960 Descending Washington Center
08:57PM 38.6486 -76.8144 45° Northeast 325 374 10,100 -960 Descending Washington Center
08:58PM 38.7036 -76.7436 45° Northeast 297 342 9,000 -900 Descending Washington Center
08:59PM 38.7419 -76.6617 59° Northeast 280 322 8,400 -1,260 Descending Washington Center
09:01PM 38.7833 -76.5500 65° Northeast 279 321 6,400 -1,680 Descending Potomac TRACON
09:02PM 38.8500 -76.5167 21° North 265 305 4,900 -1,260 Descending Potomac TRACON
09:03PM 38.9167 -76.5167 360° North 251 289 4,000 -720 Descending Potomac TRACON
09:04PM 38.9833 -76.5000 11° North 226 260 3,500 -420 Descending Potomac TRACON
09:05PM 39.0333 -76.5500 322° Northwest 175 201 3,200 -600 Descending Potomac TRACON
09:06PM 39.0667 -76.5833 322° Northwest 167 192 2,300 -900 Descending Potomac TRACON
09:07PM 39.1000 -76.6167 322° Northwest 143 165 1,500 -780 Descending Potomac TRACON
09:08PM 39.1333 -76.6333 339° North 124 143 800 -720 Descending Potomac TRACON
09:10PM 39.1667 -76.6667 339° North  Level FlightAware Approximate
09:17PM 39.1754 -76.6683 339° North  Level Estimated
09:18PM 39.1754 -76.6683 339° North  Level Estimated
09:19PM 39.1754 -76.6683 339° North  Level Estimated
09:20PM 39.1754 -76.6683 339° North  Level Estimated
09:21PM 39.1754 -76.6683 339° North  Level Estimated
09:22PM 39.1754 -76.6683 339° North  Level Estimated